sensor_id;sensor_type;location;lat;lon;timestamp;P1;durP1;ratioP1;P2;durP2;ratioP2
19609;SDS011;9952;47.122;-1.638;2023-04-03T00:02:54;7.50;;;2.33;;
19609;SDS011;9952;47.122;-1.638;2023-04-03T00:07:35;7.93;;;1.97;;
19609;SDS011;9952;47.122;-1.638;2023-04-03T00:12:16;5.23;;;2.00;;
19609;SDS011;9952;47.122;-1.638;2023-04-03T00:16:56;5.20;;;1.67;;
19609;SDS011;9952;47.122;-1.638;2023-04-03T00:21:37;8.93;;;2.30;;
19609;SDS011;9952;47.122;-1.638;2023-04-03T00:26:18;9.33;;;2.20;;
19609;SDS011;9952;47.122;-1.638;2023-04-03T00:30:59;4.50;;;2.13;;
19609;SDS011;9952;47.122;-1.638;2023-04-03T00:35:40;5.50;;;2.60;;
19609;SDS011;9952;47.122;-1.638;2023-04-03T00:40:23;8.40;;;2.43;;
19609;SDS011;9952;47.122;-1.638;2023-04-03T00:49:46;6.17;;;2.10;;
19609;SDS011;9952;47.122;-1.638;2023-04-03T00:54:26;7.07;;;2.50;;
19609;SDS011;9952;47.122;-1.638;2023-04-03T00:59:15;11.57;;;2.80;;
19609;SDS011;9952;47.122;-1.638;2023-04-03T01:03:59;7.17;;;2.23;;
19609;SDS011;9952;47.122;-1.638;2023-04-03T01:08:44;12.97;;;4.17;;
19609;SDS011;9952;47.122;-1.638;2023-04-03T01:13:28;6.23;;;2.73;;
19609;SDS011;9952;47.122;-1.638;2023-04-03T01:18:10;11.57;;;2.80;;
19609;SDS011;9952;47.122;-1.638;2023-04-03T01:27:53;8.77;;;2.83;;
19609;SDS011;9952;47.122;-1.638;2023-04-03T01:32:34;10.23;;;2.80;;
19609;SDS011;9952;47.122;-1.638;2023-04-03T01:37:15;9.83;;;2.87;;
19609;SDS011;9952;47.122;-1.638;2023-04-03T01:41:55;4.80;;;2.63;;
19609;SDS011;9952;47.122;-1.638;2023-04-03T01:46:36;13.60;;;3.77;;
19609;SDS011;9952;47.122;-1.638;2023-04-03T01:51:17;11.90;;;3.20;;
19609;SDS011;9952;47.122;-1.638;2023-04-03T01:55:58;10.63;;;2.80;;
19609;SDS011;9952;47.122;-1.638;2023-04-03T02:00:39;12.33;;;3.10;;
19609;SDS011;9952;47.122;-1.638;2023-04-03T02:05:20;12.67;;;2.90;;
19609;SDS011;9952;47.122;-1.638;2023-04-03T02:10:00;12.43;;;2.90;;
19609;SDS011;9952;47.122;-1.638;2023-04-03T02:14:41;5.73;;;2.40;;
19609;SDS011;9952;47.122;-1.638;2023-04-03T02:19:22;8.83;;;2.80;;
19609;SDS011;9952;47.122;-1.638;2023-04-03T02:24:03;13.03;;;2.77;;
19609;SDS011;9952;47.122;-1.638;2023-04-03T02:28:44;11.40;;;2.90;;
19609;SDS011;9952;47.122;-1.638;2023-04-03T02:33:25;10.63;;;2.57;;
19609;SDS011;9952;47.122;-1.638;2023-04-03T02:38:05;11.33;;;2.90;;
19609;SDS011;9952;47.122;-1.638;2023-04-03T02:42:46;17.67;;;3.27;;
19609;SDS011;9952;47.122;-1.638;2023-04-03T02:47:27;16.23;;;2.67;;
19609;SDS011;9952;47.122;-1.638;2023-04-03T02:52:08;10.30;;;2.80;;
19609;SDS011;9952;47.122;-1.638;2023-04-03T02:56:50;10.93;;;2.70;;
19609;SDS011;9952;47.122;-1.638;2023-04-03T03:01:31;12.90;;;3.13;;
19609;SDS011;9952;47.122;-1.638;2023-04-03T03:06:13;7.57;;;2.93;;
19609;SDS011;9952;47.122;-1.638;2023-04-03T03:10:56;8.63;;;2.40;;
19609;SDS011;9952;47.122;-1.638;2023-04-03T03:15:37;11.50;;;2.73;;
19609;SDS011;9952;47.122;-1.638;2023-04-03T03:20:18;12.03;;;3.00;;
19609;SDS011;9952;47.122;-1.638;2023-04-03T03:24:59;20.50;;;3.80;;
19609;SDS011;9952;47.122;-1.638;2023-04-03T03:29:40;8.97;;;2.67;;
19609;SDS011;9952;47.122;-1.638;2023-04-03T03:34:21;14.80;;;3.00;;
19609;SDS011;9952;47.122;-1.638;2023-04-03T03:39:02;11.27;;;2.90;;
19609;SDS011;9952;47.122;-1.638;2023-04-03T03:43:43;18.37;;;3.47;;
19609;SDS011;9952;47.122;-1.638;2023-04-03T03:48:24;10.97;;;3.10;;
19609;SDS011;9952;47.122;-1.638;2023-04-03T03:53:05;12.97;;;2.93;;
19609;SDS011;9952;47.122;-1.638;2023-04-03T03:57:46;19.90;;;3.50;;
19609;SDS011;9952;47.122;-1.638;2023-04-03T04:02:26;10.03;;;3.23;;
19609;SDS011;9952;47.122;-1.638;2023-04-03T04:07:07;13.13;;;5.13;;
19609;SDS011;9952;47.122;-1.638;2023-04-03T04:11:48;14.60;;;4.80;;
19609;SDS011;9952;47.122;-1.638;2023-04-03T04:16:29;13.17;;;4.10;;
19609;SDS011;9952;47.122;-1.638;2023-04-03T04:21:09;16.80;;;3.67;;
19609;SDS011;9952;47.122;-1.638;2023-04-03T04:25:50;11.10;;;3.23;;
19609;SDS011;9952;47.122;-1.638;2023-04-03T04:30:31;11.20;;;3.00;;
19609;SDS011;9952;47.122;-1.638;2023-04-03T04:35:12;7.27;;;3.03;;
19609;SDS011;9952;47.122;-1.638;2023-04-03T04:39:53;12.47;;;3.37;;
19609;SDS011;9952;47.122;-1.638;2023-04-03T04:44:33;12.13;;;3.03;;
19609;SDS011;9952;47.122;-1.638;2023-04-03T04:49:14;14.03;;;3.67;;
19609;SDS011;9952;47.122;-1.638;2023-04-03T04:53:55;14.03;;;3.60;;
19609;SDS011;9952;47.122;-1.638;2023-04-03T04:58:36;13.97;;;3.43;;
19609;SDS011;9952;47.122;-1.638;2023-04-03T05:03:16;9.83;;;3.67;;
19609;SDS011;9952;47.122;-1.638;2023-04-03T05:07:57;11.30;;;2.97;;
19609;SDS011;9952;47.122;-1.638;2023-04-03T05:12:38;18.33;;;3.60;;
19609;SDS011;9952;47.122;-1.638;2023-04-03T05:17:19;12.60;;;3.00;;
19609;SDS011;9952;47.122;-1.638;2023-04-03T05:22:00;10.53;;;2.73;;
19609;SDS011;9952;47.122;-1.638;2023-04-03T05:26:41;13.83;;;4.00;;
19609;SDS011;9952;47.122;-1.638;2023-04-03T05:31:22;20.07;;;4.53;;
19609;SDS011;9952;47.122;-1.638;2023-04-03T05:36:04;14.73;;;3.80;;
19609;SDS011;9952;47.122;-1.638;2023-04-03T05:40:45;16.23;;;4.77;;
19609;SDS011;9952;47.122;-1.638;2023-04-03T05:45:26;15.07;;;4.33;;
19609;SDS011;9952;47.122;-1.638;2023-04-03T05:50:07;15.17;;;4.27;;
19609;SDS011;9952;47.122;-1.638;2023-04-03T05:54:48;13.43;;;5.57;;
19609;SDS011;9952;47.122;-1.638;2023-04-03T05:59:29;21.20;;;6.37;;
19609;SDS011;9952;47.122;-1.638;2023-04-03T06:04:10;16.63;;;5.97;;
19609;SDS011;9952;47.122;-1.638;2023-04-03T06:08:52;26.27;;;6.70;;
19609;SDS011;9952;47.122;-1.638;2023-04-03T06:13:33;16.83;;;6.10;;
19609;SDS011;9952;47.122;-1.638;2023-04-03T06:18:15;17.27;;;5.43;;
19609;SDS011;9952;47.122;-1.638;2023-04-03T06:22:55;16.40;;;5.90;;
19609;SDS011;9952;47.122;-1.638;2023-04-03T06:27:36;16.83;;;5.37;;
19609;SDS011;9952;47.122;-1.638;2023-04-03T06:32:18;21.43;;;5.70;;
19609;SDS011;9952;47.122;-1.638;2023-04-03T06:36:58;17.03;;;5.30;;
19609;SDS011;9952;47.122;-1.638;2023-04-03T06:41:39;17.50;;;4.90;;
19609;SDS011;9952;47.122;-1.638;2023-04-03T06:46:21;15.13;;;4.07;;
19609;SDS011;9952;47.122;-1.638;2023-04-03T06:51:02;14.70;;;4.27;;
19609;SDS011;9952;47.122;-1.638;2023-04-03T06:55:43;10.87;;;3.43;;
19609;SDS011;9952;47.122;-1.638;2023-04-03T07:00:23;7.97;;;3.10;;
19609;SDS011;9952;47.122;-1.638;2023-04-03T07:05:04;9.87;;;3.43;;
19609;SDS011;9952;47.122;-1.638;2023-04-03T07:09:46;8.93;;;3.30;;
19609;SDS011;9952;47.122;-1.638;2023-04-03T07:14:28;14.77;;;3.43;;
19609;SDS011;9952;47.122;-1.638;2023-04-03T07:19:08;14.67;;;3.67;;
19609;SDS011;9952;47.122;-1.638;2023-04-03T07:23:49;13.30;;;3.53;;
19609;SDS011;9952;47.122;-1.638;2023-04-03T07:28:32;5.77;;;3.57;;
19609;SDS011;9952;47.122;-1.638;2023-04-03T07:33:13;9.37;;;3.40;;
19609;SDS011;9952;47.122;-1.638;2023-04-03T07:37:55;11.20;;;4.00;;
19609;SDS011;9952;47.122;-1.638;2023-04-03T07:42:36;8.67;;;3.70;;
19609;SDS011;9952;47.122;-1.638;2023-04-03T07:47:17;9.33;;;3.67;;
19609;SDS011;9952;47.122;-1.638;2023-04-03T07:51:58;10.47;;;3.80;;
19609;SDS011;9952;47.122;-1.638;2023-04-03T07:56:39;12.20;;;3.83;;
19609;SDS011;9952;47.122;-1.638;2023-04-03T08:01:20;9.57;;;4.10;;
19609;SDS011;9952;47.122;-1.638;2023-04-03T08:06:01;13.30;;;4.17;;
19609;SDS011;9952;47.122;-1.638;2023-04-03T08:10:50;10.83;;;3.90;;
19609;SDS011;9952;47.122;-1.638;2023-04-03T08:15:31;8.93;;;4.17;;
19609;SDS011;9952;47.122;-1.638;2023-04-03T08:20:13;10.43;;;4.27;;
19609;SDS011;9952;47.122;-1.638;2023-04-03T08:24:53;15.53;;;4.43;;
19609;SDS011;9952;47.122;-1.638;2023-04-03T08:29:34;8.67;;;4.23;;
19609;SDS011;9952;47.122;-1.638;2023-04-03T08:34:17;11.63;;;4.50;;
19609;SDS011;9952;47.122;-1.638;2023-04-03T08:38:59;11.23;;;3.50;;
19609;SDS011;9952;47.122;-1.638;2023-04-03T08:48:39;6.93;;;4.03;;
19609;SDS011;9952;47.122;-1.638;2023-04-03T08:53:23;12.70;;;3.97;;
19609;SDS011;9952;47.122;-1.638;2023-04-03T08:58:15;12.57;;;3.97;;
19609;SDS011;9952;47.122;-1.638;2023-04-03T09:03:01;7.07;;;3.70;;
19609;SDS011;9952;47.122;-1.638;2023-04-03T09:07:43;5.73;;;3.63;;
19609;SDS011;9952;47.122;-1.638;2023-04-03T09:12:46;13.53;;;4.00;;
19609;SDS011;9952;47.122;-1.638;2023-04-03T09:17:50;9.67;;;3.87;;
19609;SDS011;9952;47.122;-1.638;2023-04-03T09:22:43;7.03;;;4.10;;
19609;SDS011;9952;47.122;-1.638;2023-04-03T09:27:24;6.73;;;3.17;;
19609;SDS011;9952;47.122;-1.638;2023-04-03T09:37:09;10.17;;;4.30;;
19609;SDS011;9952;47.122;-1.638;2023-04-03T09:42:18;10.00;;;4.23;;
19609;SDS011;9952;47.122;-1.638;2023-04-03T09:47:17;7.23;;;3.83;;
19609;SDS011;9952;47.122;-1.638;2023-04-03T09:52:18;6.90;;;4.07;;
19609;SDS011;9952;47.122;-1.638;2023-04-03T09:57:06;5.33;;;3.97;;
19609;SDS011;9952;47.122;-1.638;2023-04-03T10:01:57;8.27;;;4.67;;
19609;SDS011;9952;47.122;-1.638;2023-04-03T10:06:58;8.70;;;4.90;;
19609;SDS011;9952;47.122;-1.638;2023-04-03T10:11:41;10.40;;;5.13;;
19609;SDS011;9952;47.122;-1.638;2023-04-03T10:16:49;8.57;;;5.13;;
19609;SDS011;9952;47.122;-1.638;2023-04-03T10:21:58;6.83;;;4.77;;
19609;SDS011;9952;47.122;-1.638;2023-04-03T10:26:45;7.23;;;4.53;;
19609;SDS011;9952;47.122;-1.638;2023-04-03T10:41:07;8.77;;;5.43;;
19609;SDS011;9952;47.122;-1.638;2023-04-03T10:55:48;8.13;;;4.80;;
19609;SDS011;9952;47.122;-1.638;2023-04-03T11:00:50;8.43;;;5.00;;
19609;SDS011;9952;47.122;-1.638;2023-04-03T11:15:24;7.63;;;5.70;;
19609;SDS011;9952;47.122;-1.638;2023-04-03T11:20:22;8.83;;;5.53;;
19609;SDS011;9952;47.122;-1.638;2023-04-03T11:29:51;7.93;;;5.87;;
19609;SDS011;9952;47.122;-1.638;2023-04-03T11:34:39;8.53;;;5.30;;
19609;SDS011;9952;47.122;-1.638;2023-04-03T11:39:32;7.60;;;5.07;;
19609;SDS011;9952;47.122;-1.638;2023-04-03T11:44:36;9.77;;;6.40;;
19609;SDS011;9952;47.122;-1.638;2023-04-03T11:59:26;8.67;;;5.13;;
19609;SDS011;9952;47.122;-1.638;2023-04-03T12:04:18;8.10;;;5.67;;
19609;SDS011;9952;47.122;-1.638;2023-04-03T12:09:00;10.87;;;5.87;;
19609;SDS011;9952;47.122;-1.638;2023-04-03T12:23:32;8.73;;;6.00;;
19609;SDS011;9952;47.122;-1.638;2023-04-03T12:28:16;9.57;;;6.30;;
19609;SDS011;9952;47.122;-1.638;2023-04-03T12:38:28;10.20;;;6.50;;
19609;SDS011;9952;47.122;-1.638;2023-04-03T12:43:22;11.57;;;6.73;;
19609;SDS011;9952;47.122;-1.638;2023-04-03T12:48:15;9.73;;;6.17;;
19609;SDS011;9952;47.122;-1.638;2023-04-03T12:53:12;11.23;;;6.97;;
19609;SDS011;9952;47.122;-1.638;2023-04-03T12:57:54;12.13;;;6.23;;
19609;SDS011;9952;47.122;-1.638;2023-04-03T13:02:35;8.73;;;5.93;;
19609;SDS011;9952;47.122;-1.638;2023-04-03T13:12:08;10.80;;;5.80;;
19609;SDS011;9952;47.122;-1.638;2023-04-03T13:16:55;8.90;;;5.77;;
19609;SDS011;9952;47.122;-1.638;2023-04-03T13:21:37;8.87;;;6.50;;
19609;SDS011;9952;47.122;-1.638;2023-04-03T13:26:19;8.07;;;5.50;;
19609;SDS011;9952;47.122;-1.638;2023-04-03T13:35:45;9.10;;;5.87;;
19609;SDS011;9952;47.122;-1.638;2023-04-03T13:40:26;7.87;;;5.50;;
19609;SDS011;9952;47.122;-1.638;2023-04-03T13:50:15;8.47;;;5.70;;
19609;SDS011;9952;47.122;-1.638;2023-04-03T13:55:03;8.20;;;5.60;;
19609;SDS011;9952;47.122;-1.638;2023-04-03T14:00:18;8.53;;;5.80;;
19609;SDS011;9952;47.122;-1.638;2023-04-03T14:05:19;9.53;;;6.20;;
19609;SDS011;9952;47.122;-1.638;2023-04-03T14:10:01;8.93;;;5.93;;
19609;SDS011;9952;47.122;-1.638;2023-04-03T14:14:42;8.60;;;5.27;;
19609;SDS011;9952;47.122;-1.638;2023-04-03T14:19:41;8.13;;;5.43;;
19609;SDS011;9952;47.122;-1.638;2023-04-03T14:24:23;8.40;;;5.80;;
19609;SDS011;9952;47.122;-1.638;2023-04-03T14:29:03;8.70;;;5.90;;
19609;SDS011;9952;47.122;-1.638;2023-04-03T14:33:45;10.33;;;5.30;;
19609;SDS011;9952;47.122;-1.638;2023-04-03T14:38:28;9.13;;;5.50;;
19609;SDS011;9952;47.122;-1.638;2023-04-03T14:43:11;7.60;;;4.93;;
19609;SDS011;9952;47.122;-1.638;2023-04-03T14:47:53;7.33;;;4.57;;
19609;SDS011;9952;47.122;-1.638;2023-04-03T14:52:35;7.37;;;4.90;;
19609;SDS011;9952;47.122;-1.638;2023-04-03T14:57:16;7.27;;;4.50;;
19609;SDS011;9952;47.122;-1.638;2023-04-03T15:01:57;7.73;;;4.53;;
19609;SDS011;9952;47.122;-1.638;2023-04-03T15:06:38;7.53;;;4.63;;
19609;SDS011;9952;47.122;-1.638;2023-04-03T15:11:20;8.93;;;4.77;;
19609;SDS011;9952;47.122;-1.638;2023-04-03T15:16:01;9.10;;;5.13;;
19609;SDS011;9952;47.122;-1.638;2023-04-03T15:20:42;6.87;;;4.40;;
19609;SDS011;9952;47.122;-1.638;2023-04-03T15:25:24;7.80;;;4.67;;
19609;SDS011;9952;47.122;-1.638;2023-04-03T15:30:07;6.20;;;4.33;;
19609;SDS011;9952;47.122;-1.638;2023-04-03T15:34:53;6.40;;;4.00;;
19609;SDS011;9952;47.122;-1.638;2023-04-03T15:39:34;8.53;;;4.20;;
19609;SDS011;9952;47.122;-1.638;2023-04-03T15:44:15;6.10;;;3.87;;
19609;SDS011;9952;47.122;-1.638;2023-04-03T15:48:59;4.83;;;3.93;;
19609;SDS011;9952;47.122;-1.638;2023-04-03T15:53:41;4.80;;;4.27;;
19609;SDS011;9952;47.122;-1.638;2023-04-03T15:58:22;6.17;;;4.80;;
19609;SDS011;9952;47.122;-1.638;2023-04-03T16:03:08;6.00;;;4.40;;
19609;SDS011;9952;47.122;-1.638;2023-04-03T16:07:52;6.10;;;4.27;;
19609;SDS011;9952;47.122;-1.638;2023-04-03T16:12:33;7.67;;;4.93;;
19609;SDS011;9952;47.122;-1.638;2023-04-03T16:17:15;5.60;;;4.43;;
19609;SDS011;9952;47.122;-1.638;2023-04-03T16:21:55;4.50;;;3.73;;
19609;SDS011;9952;47.122;-1.638;2023-04-03T16:26:37;5.80;;;4.20;;
19609;SDS011;9952;47.122;-1.638;2023-04-03T16:31:18;4.93;;;3.93;;
19609;SDS011;9952;47.122;-1.638;2023-04-03T16:35:59;5.43;;;4.10;;
19609;SDS011;9952;47.122;-1.638;2023-04-03T16:40:40;6.20;;;4.43;;
19609;SDS011;9952;47.122;-1.638;2023-04-03T16:45:21;5.10;;;4.20;;
19609;SDS011;9952;47.122;-1.638;2023-04-03T16:50:02;7.33;;;4.50;;
19609;SDS011;9952;47.122;-1.638;2023-04-03T16:54:44;8.03;;;4.03;;
19609;SDS011;9952;47.122;-1.638;2023-04-03T16:59:25;6.73;;;4.30;;
19609;SDS011;9952;47.122;-1.638;2023-04-03T17:04:07;5.17;;;4.10;;
19609;SDS011;9952;47.122;-1.638;2023-04-03T17:08:51;4.63;;;3.93;;
19609;SDS011;9952;47.122;-1.638;2023-04-03T17:13:32;5.87;;;4.20;;
19609;SDS011;9952;47.122;-1.638;2023-04-03T17:18:13;5.20;;;3.87;;
19609;SDS011;9952;47.122;-1.638;2023-04-03T17:22:56;5.07;;;3.83;;
19609;SDS011;9952;47.122;-1.638;2023-04-03T17:27:38;6.67;;;3.83;;
19609;SDS011;9952;47.122;-1.638;2023-04-03T17:32:19;4.63;;;3.40;;
19609;SDS011;9952;47.122;-1.638;2023-04-03T17:37:00;6.30;;;4.07;;
19609;SDS011;9952;47.122;-1.638;2023-04-03T17:41:40;5.23;;;3.57;;
19609;SDS011;9952;47.122;-1.638;2023-04-03T17:46:22;4.87;;;3.83;;
19609;SDS011;9952;47.122;-1.638;2023-04-03T17:51:04;6.40;;;3.47;;
19609;SDS011;9952;47.122;-1.638;2023-04-03T17:55:46;5.77;;;3.83;;
19609;SDS011;9952;47.122;-1.638;2023-04-03T18:00:26;6.13;;;3.47;;
19609;SDS011;9952;47.122;-1.638;2023-04-03T18:05:08;5.70;;;3.50;;
19609;SDS011;9952;47.122;-1.638;2023-04-03T18:09:49;4.30;;;3.50;;
19609;SDS011;9952;47.122;-1.638;2023-04-03T18:14:32;4.07;;;3.37;;
19609;SDS011;9952;47.122;-1.638;2023-04-03T18:19:14;4.30;;;3.40;;
19609;SDS011;9952;47.122;-1.638;2023-04-03T18:23:55;7.30;;;4.40;;
19609;SDS011;9952;47.122;-1.638;2023-04-03T18:28:36;6.17;;;4.10;;
19609;SDS011;9952;47.122;-1.638;2023-04-03T18:33:18;5.57;;;4.13;;
19609;SDS011;9952;47.122;-1.638;2023-04-03T18:37:59;4.87;;;3.80;;
19609;SDS011;9952;47.122;-1.638;2023-04-03T18:42:40;7.20;;;4.37;;
19609;SDS011;9952;47.122;-1.638;2023-04-03T18:47:21;6.23;;;4.40;;
19609;SDS011;9952;47.122;-1.638;2023-04-03T18:52:02;7.73;;;4.67;;
19609;SDS011;9952;47.122;-1.638;2023-04-03T18:56:43;7.43;;;4.43;;
19609;SDS011;9952;47.122;-1.638;2023-04-03T19:01:24;6.80;;;4.53;;
19609;SDS011;9952;47.122;-1.638;2023-04-03T19:06:05;7.33;;;4.60;;
19609;SDS011;9952;47.122;-1.638;2023-04-03T19:10:46;6.40;;;4.77;;
19609;SDS011;9952;47.122;-1.638;2023-04-03T19:15:27;6.27;;;4.23;;
19609;SDS011;9952;47.122;-1.638;2023-04-03T19:20:08;5.37;;;3.93;;
19609;SDS011;9952;47.122;-1.638;2023-04-03T19:24:50;6.80;;;5.07;;
19609;SDS011;9952;47.122;-1.638;2023-04-03T19:29:31;8.43;;;5.70;;
19609;SDS011;9952;47.122;-1.638;2023-04-03T19:34:11;8.77;;;5.67;;
19609;SDS011;9952;47.122;-1.638;2023-04-03T19:38:52;11.60;;;6.57;;
19609;SDS011;9952;47.122;-1.638;2023-04-03T19:43:33;12.80;;;7.27;;
19609;SDS011;9952;47.122;-1.638;2023-04-03T19:48:14;13.60;;;7.30;;
19609;SDS011;9952;47.122;-1.638;2023-04-03T19:52:55;17.33;;;11.10;;
19609;SDS011;9952;47.122;-1.638;2023-04-03T19:57:36;27.30;;;15.37;;
19609;SDS011;9952;47.122;-1.638;2023-04-03T20:02:16;96.07;;;54.93;;
19609;SDS011;9952;47.122;-1.638;2023-04-03T20:06:57;38.80;;;22.47;;
19609;SDS011;9952;47.122;-1.638;2023-04-03T20:11:38;33.53;;;20.47;;
19609;SDS011;9952;47.122;-1.638;2023-04-03T20:16:21;26.10;;;16.23;;
19609;SDS011;9952;47.122;-1.638;2023-04-03T20:21:04;24.47;;;15.60;;
19609;SDS011;9952;47.122;-1.638;2023-04-03T20:25:47;21.73;;;13.50;;
19609;SDS011;9952;47.122;-1.638;2023-04-03T20:30:28;19.87;;;13.67;;
19609;SDS011;9952;47.122;-1.638;2023-04-03T20:35:09;16.80;;;10.50;;
19609;SDS011;9952;47.122;-1.638;2023-04-03T20:39:50;14.17;;;9.60;;
19609;SDS011;9952;47.122;-1.638;2023-04-03T20:44:30;13.57;;;9.87;;
19609;SDS011;9952;47.122;-1.638;2023-04-03T20:49:12;10.57;;;7.30;;
19609;SDS011;9952;47.122;-1.638;2023-04-03T20:53:52;13.57;;;7.90;;
19609;SDS011;9952;47.122;-1.638;2023-04-03T20:58:35;11.93;;;7.43;;
19609;SDS011;9952;47.122;-1.638;2023-04-03T21:03:18;10.63;;;7.37;;
19609;SDS011;9952;47.122;-1.638;2023-04-03T21:23:48;11.23;;;8.20;;
19609;SDS011;9952;47.122;-1.638;2023-04-03T21:28:30;12.17;;;8.77;;
19609;SDS011;9952;47.122;-1.638;2023-04-03T21:33:11;12.60;;;8.50;;
19609;SDS011;9952;47.122;-1.638;2023-04-03T21:37:52;11.50;;;8.30;;
19609;SDS011;9952;47.122;-1.638;2023-04-03T21:42:33;13.83;;;9.20;;
19609;SDS011;9952;47.122;-1.638;2023-04-03T21:47:14;13.63;;;8.77;;
19609;SDS011;9952;47.122;-1.638;2023-04-03T21:51:55;12.47;;;8.10;;
19609;SDS011;9952;47.122;-1.638;2023-04-03T21:56:36;15.03;;;8.20;;
19609;SDS011;9952;47.122;-1.638;2023-04-03T22:01:18;13.23;;;8.90;;
19609;SDS011;9952;47.122;-1.638;2023-04-03T22:05:59;14.63;;;8.83;;
19609;SDS011;9952;47.122;-1.638;2023-04-03T22:10:40;12.53;;;9.03;;
19609;SDS011;9952;47.122;-1.638;2023-04-03T22:15:21;13.63;;;8.73;;
19609;SDS011;9952;47.122;-1.638;2023-04-03T22:20:02;13.43;;;9.20;;
19609;SDS011;9952;47.122;-1.638;2023-04-03T22:24:43;14.60;;;8.40;;
19609;SDS011;9952;47.122;-1.638;2023-04-03T22:29:24;15.50;;;8.60;;
19609;SDS011;9952;47.122;-1.638;2023-04-03T22:34:06;12.87;;;8.17;;
19609;SDS011;9952;47.122;-1.638;2023-04-03T22:38:47;11.87;;;8.50;;
19609;SDS011;9952;47.122;-1.638;2023-04-03T22:43:28;12.77;;;8.50;;
19609;SDS011;9952;47.122;-1.638;2023-04-03T22:48:11;12.30;;;7.90;;
19609;SDS011;9952;47.122;-1.638;2023-04-03T22:52:52;12.77;;;8.17;;
19609;SDS011;9952;47.122;-1.638;2023-04-03T22:57:33;11.87;;;8.40;;
19609;SDS011;9952;47.122;-1.638;2023-04-03T23:02:14;11.87;;;7.90;;
19609;SDS011;9952;47.122;-1.638;2023-04-03T23:06:54;15.23;;;8.60;;
19609;SDS011;9952;47.122;-1.638;2023-04-03T23:11:35;16.20;;;9.20;;
19609;SDS011;9952;47.122;-1.638;2023-04-03T23:16:16;15.97;;;9.77;;
19609;SDS011;9952;47.122;-1.638;2023-04-03T23:20:57;14.80;;;9.07;;
19609;SDS011;9952;47.122;-1.638;2023-04-03T23:25:38;11.80;;;7.90;;
19609;SDS011;9952;47.122;-1.638;2023-04-03T23:30:19;14.70;;;8.10;;
19609;SDS011;9952;47.122;-1.638;2023-04-03T23:35:00;13.07;;;8.17;;
19609;SDS011;9952;47.122;-1.638;2023-04-03T23:39:42;14.90;;;8.30;;
19609;SDS011;9952;47.122;-1.638;2023-04-03T23:44:22;12.00;;;8.57;;
19609;SDS011;9952;47.122;-1.638;2023-04-03T23:49:03;14.00;;;8.87;;
19609;SDS011;9952;47.122;-1.638;2023-04-03T23:53:44;16.10;;;9.60;;
19609;SDS011;9952;47.122;-1.638;2023-04-03T23:58:25;13.93;;;9.40;;
